sensor_id;sensor_type;location;lat;lon;timestamp;P1;durP1;ratioP1;P2;durP2;ratioP2
56960;SDS011;42857;49.768;22.716;2022-08-05T00:01:09;8.85;;;7.70;;
56960;SDS011;42857;49.768;22.716;2022-08-05T00:03:35;8.18;;;7.35;;
56960;SDS011;42857;49.768;22.716;2022-08-05T00:06:01;8.55;;;7.75;;
56960;SDS011;42857;49.768;22.716;2022-08-05T00:08:27;8.27;;;7.45;;
56960;SDS011;42857;49.768;22.716;2022-08-05T00:10:53;7.95;;;6.75;;
56960;SDS011;42857;49.768;22.716;2022-08-05T00:13:19;8.45;;;7.00;;
56960;SDS011;42857;49.768;22.716;2022-08-05T00:15:45;8.02;;;7.18;;
56960;SDS011;42857;49.768;22.716;2022-08-05T00:18:11;7.22;;;6.40;;
56960;SDS011;42857;49.768;22.716;2022-08-05T00:20:37;8.50;;;7.47;;
56960;SDS011;42857;49.768;22.716;2022-08-05T00:23:03;7.68;;;6.88;;
56960;SDS011;42857;49.768;22.716;2022-08-05T00:25:29;9.15;;;7.15;;
56960;SDS011;42857;49.768;22.716;2022-08-05T00:27:55;8.27;;;7.50;;
56960;SDS011;42857;49.768;22.716;2022-08-05T00:30:21;8.77;;;7.95;;
56960;SDS011;42857;49.768;22.716;2022-08-05T00:32:46;9.63;;;7.75;;
56960;SDS011;42857;49.768;22.716;2022-08-05T00:35:13;8.85;;;8.05;;
56960;SDS011;42857;49.768;22.716;2022-08-05T00:37:39;8.98;;;7.95;;
56960;SDS011;42857;49.768;22.716;2022-08-05T00:40:05;8.20;;;7.40;;
56960;SDS011;42857;49.768;22.716;2022-08-05T00:42:33;8.27;;;7.28;;
56960;SDS011;42857;49.768;22.716;2022-08-05T00:45:00;8.68;;;7.53;;
56960;SDS011;42857;49.768;22.716;2022-08-05T00:47:26;10.32;;;7.65;;
56960;SDS011;42857;49.768;22.716;2022-08-05T00:49:52;9.18;;;8.27;;
56960;SDS011;42857;49.768;22.716;2022-08-05T00:52:19;8.77;;;7.97;;
56960;SDS011;42857;49.768;22.716;2022-08-05T00:54:45;13.98;;;9.32;;
56960;SDS011;42857;49.768;22.716;2022-08-05T00:57:11;9.38;;;8.38;;
56960;SDS011;42857;49.768;22.716;2022-08-05T00:59:37;11.52;;;8.13;;
56960;SDS011;42857;49.768;22.716;2022-08-05T01:02:05;9.02;;;7.63;;
56960;SDS011;42857;49.768;22.716;2022-08-05T01:04:31;8.57;;;7.70;;
56960;SDS011;42857;49.768;22.716;2022-08-05T01:07:00;8.00;;;7.20;;
56960;SDS011;42857;49.768;22.716;2022-08-05T01:09:31;8.20;;;7.38;;
56960;SDS011;42857;49.768;22.716;2022-08-05T01:11:58;7.93;;;6.93;;
56960;SDS011;42857;49.768;22.716;2022-08-05T01:16:53;8.75;;;7.63;;
56960;SDS011;42857;49.768;22.716;2022-08-05T01:22:04;9.13;;;8.23;;
56960;SDS011;42857;49.768;22.716;2022-08-05T01:24:40;9.73;;;8.05;;
56960;SDS011;42857;49.768;22.716;2022-08-05T01:27:19;8.23;;;7.18;;
56960;SDS011;42857;49.768;22.716;2022-08-05T01:29:51;8.63;;;7.43;;
56960;SDS011;42857;49.768;22.716;2022-08-05T01:32:20;15.20;;;11.33;;
56960;SDS011;42857;49.768;22.716;2022-08-05T01:34:47;25.35;;;16.48;;
56960;SDS011;42857;49.768;22.716;2022-08-05T01:39:41;9.38;;;8.43;;
56960;SDS011;42857;49.768;22.716;2022-08-05T01:42:10;8.93;;;8.02;;
56960;SDS011;42857;49.768;22.716;2022-08-05T01:44:37;10.45;;;8.85;;
56960;SDS011;42857;49.768;22.716;2022-08-05T01:47:04;9.05;;;8.15;;
56960;SDS011;42857;49.768;22.716;2022-08-05T01:49:30;8.27;;;7.47;;
56960;SDS011;42857;49.768;22.716;2022-08-05T01:51:58;8.45;;;7.68;;
56960;SDS011;42857;49.768;22.716;2022-08-05T01:54:27;14.85;;;7.80;;
56960;SDS011;42857;49.768;22.716;2022-08-05T01:56:54;10.40;;;8.02;;
56960;SDS011;42857;49.768;22.716;2022-08-05T01:59:20;13.25;;;8.50;;
56960;SDS011;42857;49.768;22.716;2022-08-05T02:01:48;8.98;;;8.10;;
56960;SDS011;42857;49.768;22.716;2022-08-05T02:04:16;12.20;;;7.70;;
56960;SDS011;42857;49.768;22.716;2022-08-05T02:06:43;10.40;;;8.48;;
56960;SDS011;42857;49.768;22.716;2022-08-05T02:09:09;8.98;;;8.07;;
56960;SDS011;42857;49.768;22.716;2022-08-05T02:11:43;9.00;;;8.10;;
56960;SDS011;42857;49.768;22.716;2022-08-05T02:14:10;10.05;;;8.63;;
56960;SDS011;42857;49.768;22.716;2022-08-05T02:22:08;8.82;;;7.97;;
56960;SDS011;42857;49.768;22.716;2022-08-05T02:24:38;9.00;;;8.10;;
56960;SDS011;42857;49.768;22.716;2022-08-05T02:27:06;10.02;;;9.02;;
56960;SDS011;42857;49.768;22.716;2022-08-05T02:29:33;11.52;;;9.15;;
56960;SDS011;42857;49.768;22.716;2022-08-05T02:32:00;11.30;;;8.30;;
56960;SDS011;42857;49.768;22.716;2022-08-05T02:34:27;8.60;;;7.70;;
56960;SDS011;42857;49.768;22.716;2022-08-05T02:36:55;9.35;;;8.05;;
56960;SDS011;42857;49.768;22.716;2022-08-05T02:39:22;8.43;;;7.57;;
56960;SDS011;42857;49.768;22.716;2022-08-05T02:41:48;8.02;;;7.32;;
56960;SDS011;42857;49.768;22.716;2022-08-05T02:44:15;8.48;;;7.32;;
56960;SDS011;42857;49.768;22.716;2022-08-05T02:46:42;8.90;;;7.70;;
56960;SDS011;42857;49.768;22.716;2022-08-05T02:49:09;9.45;;;7.45;;
56960;SDS011;42857;49.768;22.716;2022-08-05T02:51:36;8.40;;;7.25;;
56960;SDS011;42857;49.768;22.716;2022-08-05T02:54:03;9.75;;;7.93;;
56960;SDS011;42857;49.768;22.716;2022-08-05T02:56:30;10.27;;;8.30;;
56960;SDS011;42857;49.768;22.716;2022-08-05T02:58:56;9.15;;;8.25;;
56960;SDS011;42857;49.768;22.716;2022-08-05T03:01:24;8.25;;;7.35;;
56960;SDS011;42857;49.768;22.716;2022-08-05T03:03:55;10.43;;;7.65;;
56960;SDS011;42857;49.768;22.716;2022-08-05T03:06:21;9.30;;;8.40;;
56960;SDS011;42857;49.768;22.716;2022-08-05T03:08:47;8.77;;;7.97;;
56960;SDS011;42857;49.768;22.716;2022-08-05T03:11:23;9.07;;;7.85;;
56960;SDS011;42857;49.768;22.716;2022-08-05T03:13:49;8.98;;;7.15;;
56960;SDS011;42857;49.768;22.716;2022-08-05T03:16:16;8.05;;;7.22;;
56960;SDS011;42857;49.768;22.716;2022-08-05T03:18:42;7.68;;;6.97;;
56960;SDS011;42857;49.768;22.716;2022-08-05T03:21:08;8.43;;;7.60;;
56960;SDS011;42857;49.768;22.716;2022-08-05T03:23:34;8.55;;;7.65;;
56960;SDS011;42857;49.768;22.716;2022-08-05T03:26:01;9.05;;;7.97;;
56960;SDS011;42857;49.768;22.716;2022-08-05T03:28:27;9.10;;;8.07;;
56960;SDS011;42857;49.768;22.716;2022-08-05T03:30:54;9.35;;;7.90;;
56960;SDS011;42857;49.768;22.716;2022-08-05T03:33:21;11.13;;;8.45;;
56960;SDS011;42857;49.768;22.716;2022-08-05T03:35:47;9.35;;;8.18;;
56960;SDS011;42857;49.768;22.716;2022-08-05T03:38:13;9.25;;;7.70;;
56960;SDS011;42857;49.768;22.716;2022-08-05T03:40:43;8.88;;;7.97;;
56960;SDS011;42857;49.768;22.716;2022-08-05T03:43:09;9.07;;;7.88;;
56960;SDS011;42857;49.768;22.716;2022-08-05T03:45:35;8.60;;;7.70;;
56960;SDS011;42857;49.768;22.716;2022-08-05T03:48:01;9.90;;;8.57;;
56960;SDS011;42857;49.768;22.716;2022-08-05T03:50:28;9.23;;;8.25;;
56960;SDS011;42857;49.768;22.716;2022-08-05T03:52:57;8.65;;;7.47;;
56960;SDS011;42857;49.768;22.716;2022-08-05T03:55:26;8.98;;;7.97;;
56960;SDS011;42857;49.768;22.716;2022-08-05T03:57:52;9.52;;;8.63;;
56960;SDS011;42857;49.768;22.716;2022-08-05T04:00:20;9.23;;;8.13;;
56960;SDS011;42857;49.768;22.716;2022-08-05T04:02:50;7.90;;;7.20;;
56960;SDS011;42857;49.768;22.716;2022-08-05T04:05:17;9.88;;;8.43;;
56960;SDS011;42857;49.768;22.716;2022-08-05T04:07:44;9.63;;;7.97;;
56960;SDS011;42857;49.768;22.716;2022-08-05T04:10:10;8.88;;;7.97;;
56960;SDS011;42857;49.768;22.716;2022-08-05T04:12:36;8.48;;;7.60;;
56960;SDS011;42857;49.768;22.716;2022-08-05T04:15:03;9.55;;;8.65;;
56960;SDS011;42857;49.768;22.716;2022-08-05T04:17:29;8.55;;;7.75;;
56960;SDS011;42857;49.768;22.716;2022-08-05T04:19:55;9.77;;;8.77;;
56960;SDS011;42857;49.768;22.716;2022-08-05T04:22:21;8.60;;;7.72;;
56960;SDS011;42857;49.768;22.716;2022-08-05T04:24:47;8.48;;;7.68;;
56960;SDS011;42857;49.768;22.716;2022-08-05T04:27:13;9.52;;;8.50;;
56960;SDS011;42857;49.768;22.716;2022-08-05T04:29:39;8.38;;;7.40;;
56960;SDS011;42857;49.768;22.716;2022-08-05T04:32:06;8.63;;;7.80;;
56960;SDS011;42857;49.768;22.716;2022-08-05T04:34:32;9.13;;;7.85;;
56960;SDS011;42857;49.768;22.716;2022-08-05T04:36:58;8.95;;;7.72;;
56960;SDS011;42857;49.768;22.716;2022-08-05T04:39:24;8.68;;;7.78;;
56960;SDS011;42857;49.768;22.716;2022-08-05T04:41:49;8.73;;;7.82;;
56960;SDS011;42857;49.768;22.716;2022-08-05T04:44:15;11.57;;;9.63;;
56960;SDS011;42857;49.768;22.716;2022-08-05T04:46:41;14.63;;;12.50;;
56960;SDS011;42857;49.768;22.716;2022-08-05T04:49:07;14.10;;;11.48;;
56960;SDS011;42857;49.768;22.716;2022-08-05T04:51:33;12.35;;;9.82;;
56960;SDS011;42857;49.768;22.716;2022-08-05T04:53:59;11.20;;;8.63;;
56960;SDS011;42857;49.768;22.716;2022-08-05T04:56:25;9.38;;;8.48;;
56960;SDS011;42857;49.768;22.716;2022-08-05T04:58:51;11.02;;;8.80;;
56960;SDS011;42857;49.768;22.716;2022-08-05T05:01:17;15.00;;;8.27;;
56960;SDS011;42857;49.768;22.716;2022-08-05T05:03:43;9.55;;;8.65;;
56960;SDS011;42857;49.768;22.716;2022-08-05T05:06:10;9.77;;;8.13;;
56960;SDS011;42857;49.768;22.716;2022-08-05T05:08:36;10.43;;;9.07;;
56960;SDS011;42857;49.768;22.716;2022-08-05T05:11:02;9.95;;;8.95;;
56960;SDS011;42857;49.768;22.716;2022-08-05T05:13:28;11.07;;;9.82;;
56960;SDS011;42857;49.768;22.716;2022-08-05T05:15:54;11.77;;;9.20;;
56960;SDS011;42857;49.768;22.716;2022-08-05T05:18:20;10.40;;;9.30;;
56960;SDS011;42857;49.768;22.716;2022-08-05T05:20:46;9.30;;;8.32;;
56960;SDS011;42857;49.768;22.716;2022-08-05T05:23:12;12.80;;;9.70;;
56960;SDS011;42857;49.768;22.716;2022-08-05T05:25:39;9.95;;;8.95;;
56960;SDS011;42857;49.768;22.716;2022-08-05T05:28:05;12.30;;;9.68;;
56960;SDS011;42857;49.768;22.716;2022-08-05T05:30:31;10.77;;;9.38;;
56960;SDS011;42857;49.768;22.716;2022-08-05T05:32:58;11.20;;;9.77;;
56960;SDS011;42857;49.768;22.716;2022-08-05T05:35:24;10.80;;;9.38;;
56960;SDS011;42857;49.768;22.716;2022-08-05T05:37:54;10.30;;;9.32;;
56960;SDS011;42857;49.768;22.716;2022-08-05T05:40:22;12.75;;;9.35;;
56960;SDS011;42857;49.768;22.716;2022-08-05T05:42:49;8.85;;;7.95;;
56960;SDS011;42857;49.768;22.716;2022-08-05T05:45:15;10.57;;;7.82;;
56960;SDS011;42857;49.768;22.716;2022-08-05T05:47:42;8.05;;;7.25;;
56960;SDS011;42857;49.768;22.716;2022-08-05T05:50:08;9.80;;;8.13;;
56960;SDS011;42857;49.768;22.716;2022-08-05T05:52:35;9.50;;;8.02;;
56960;SDS011;42857;49.768;22.716;2022-08-05T05:55:02;10.30;;;8.70;;
56960;SDS011;42857;49.768;22.716;2022-08-05T05:57:29;8.98;;;8.15;;
56960;SDS011;42857;49.768;22.716;2022-08-05T05:59:54;9.23;;;8.30;;
56960;SDS011;42857;49.768;22.716;2022-08-05T06:02:20;9.52;;;7.72;;
56960;SDS011;42857;49.768;22.716;2022-08-05T06:04:46;10.45;;;8.15;;
56960;SDS011;42857;49.768;22.716;2022-08-05T06:07:12;8.88;;;8.07;;
56960;SDS011;42857;49.768;22.716;2022-08-05T06:09:38;8.40;;;7.60;;
56960;SDS011;42857;49.768;22.716;2022-08-05T06:12:04;8.40;;;7.70;;
56960;SDS011;42857;49.768;22.716;2022-08-05T06:14:31;8.60;;;7.70;;
56960;SDS011;42857;49.768;22.716;2022-08-05T06:16:57;8.05;;;7.30;;
56960;SDS011;42857;49.768;22.716;2022-08-05T06:19:23;11.98;;;8.52;;
56960;SDS011;42857;49.768;22.716;2022-08-05T06:21:49;8.10;;;7.43;;
56960;SDS011;42857;49.768;22.716;2022-08-05T06:24:15;8.07;;;7.30;;
56960;SDS011;42857;49.768;22.716;2022-08-05T06:26:41;8.68;;;7.85;;
56960;SDS011;42857;49.768;22.716;2022-08-05T06:29:07;9.02;;;8.13;;
56960;SDS011;42857;49.768;22.716;2022-08-05T06:31:33;9.93;;;8.90;;
56960;SDS011;42857;49.768;22.716;2022-08-05T06:33:59;11.20;;;9.30;;
56960;SDS011;42857;49.768;22.716;2022-08-05T06:36:26;11.18;;;10.07;;
56960;SDS011;42857;49.768;22.716;2022-08-05T06:38:52;11.50;;;9.32;;
56960;SDS011;42857;49.768;22.716;2022-08-05T06:41:18;12.15;;;9.15;;
56960;SDS011;42857;49.768;22.716;2022-08-05T06:43:45;8.50;;;7.70;;
56960;SDS011;42857;49.768;22.716;2022-08-05T06:46:11;9.05;;;7.70;;
56960;SDS011;42857;49.768;22.716;2022-08-05T06:48:36;8.35;;;7.65;;
56960;SDS011;42857;49.768;22.716;2022-08-05T06:51:03;8.52;;;7.43;;
56960;SDS011;42857;49.768;22.716;2022-08-05T06:53:29;8.43;;;7.53;;
56960;SDS011;42857;49.768;22.716;2022-08-05T06:55:59;9.50;;;6.70;;
56960;SDS011;42857;49.768;22.716;2022-08-05T06:58:27;7.80;;;6.43;;
56960;SDS011;42857;49.768;22.716;2022-08-05T07:00:53;10.25;;;6.43;;
56960;SDS011;42857;49.768;22.716;2022-08-05T07:03:19;6.88;;;5.47;;
56960;SDS011;42857;49.768;22.716;2022-08-05T07:05:45;6.95;;;5.53;;
56960;SDS011;42857;49.768;22.716;2022-08-05T07:08:11;6.82;;;5.45;;
56960;SDS011;42857;49.768;22.716;2022-08-05T07:10:37;6.10;;;5.60;;
56960;SDS011;42857;49.768;22.716;2022-08-05T07:13:03;6.20;;;5.70;;
56960;SDS011;42857;49.768;22.716;2022-08-05T07:15:48;8.15;;;5.90;;
56960;SDS011;42857;49.768;22.716;2022-08-05T07:18:32;6.47;;;5.88;;
56960;SDS011;42857;49.768;22.716;2022-08-05T07:20:58;6.70;;;6.07;;
56960;SDS011;42857;49.768;22.716;2022-08-05T07:23:24;6.68;;;6.13;;
56960;SDS011;42857;49.768;22.716;2022-08-05T07:25:50;6.03;;;5.50;;
56960;SDS011;42857;49.768;22.716;2022-08-05T07:28:16;6.70;;;5.57;;
56960;SDS011;42857;49.768;22.716;2022-08-05T07:30:42;7.05;;;5.60;;
56960;SDS011;42857;49.768;22.716;2022-08-05T07:33:09;5.80;;;5.30;;
56960;SDS011;42857;49.768;22.716;2022-08-05T07:35:36;5.07;;;4.68;;
56960;SDS011;42857;49.768;22.716;2022-08-05T07:38:02;8.00;;;5.40;;
56960;SDS011;42857;49.768;22.716;2022-08-05T07:40:28;5.93;;;4.97;;
56960;SDS011;42857;49.768;22.716;2022-08-05T07:42:54;4.95;;;4.45;;
56960;SDS011;42857;49.768;22.716;2022-08-05T07:45:20;5.05;;;4.55;;
56960;SDS011;42857;49.768;22.716;2022-08-05T07:47:46;5.57;;;5.03;;
56960;SDS011;42857;49.768;22.716;2022-08-05T07:50:12;5.30;;;4.53;;
56960;SDS011;42857;49.768;22.716;2022-08-05T07:52:39;6.85;;;5.03;;
56960;SDS011;42857;49.768;22.716;2022-08-05T07:55:05;5.18;;;4.68;;
56960;SDS011;42857;49.768;22.716;2022-08-05T07:57:31;6.43;;;4.47;;
56960;SDS011;42857;49.768;22.716;2022-08-05T07:59:57;5.40;;;4.90;;
56960;SDS011;42857;49.768;22.716;2022-08-05T08:02:24;8.45;;;5.38;;
56960;SDS011;42857;49.768;22.716;2022-08-05T08:04:50;5.28;;;4.65;;
56960;SDS011;42857;49.768;22.716;2022-08-05T08:07:17;5.30;;;4.80;;
56960;SDS011;42857;49.768;22.716;2022-08-05T08:09:43;5.35;;;4.68;;
56960;SDS011;42857;49.768;22.716;2022-08-05T08:12:09;6.32;;;5.53;;
56960;SDS011;42857;49.768;22.716;2022-08-05T08:14:37;10.23;;;5.00;;
56960;SDS011;42857;49.768;22.716;2022-08-05T08:17:03;7.13;;;5.32;;
56960;SDS011;42857;49.768;22.716;2022-08-05T08:19:34;5.90;;;5.30;;
56960;SDS011;42857;49.768;22.716;2022-08-05T08:22:00;6.57;;;5.18;;
56960;SDS011;42857;49.768;22.716;2022-08-05T08:24:26;8.02;;;5.75;;
56960;SDS011;42857;49.768;22.716;2022-08-05T08:26:52;6.22;;;5.63;;
56960;SDS011;42857;49.768;22.716;2022-08-05T08:29:18;6.28;;;5.68;;
56960;SDS011;42857;49.768;22.716;2022-08-05T08:31:44;8.18;;;5.60;;
56960;SDS011;42857;49.768;22.716;2022-08-05T08:34:10;5.72;;;5.22;;
56960;SDS011;42857;49.768;22.716;2022-08-05T08:36:37;7.35;;;5.30;;
56960;SDS011;42857;49.768;22.716;2022-08-05T08:39:03;6.75;;;5.50;;
56960;SDS011;42857;49.768;22.716;2022-08-05T08:41:29;5.15;;;4.70;;
56960;SDS011;42857;49.768;22.716;2022-08-05T08:43:58;6.05;;;4.72;;
56960;SDS011;42857;49.768;22.716;2022-08-05T08:46:26;5.53;;;4.90;;
56960;SDS011;42857;49.768;22.716;2022-08-05T08:48:53;5.70;;;5.20;;
56960;SDS011;42857;49.768;22.716;2022-08-05T08:51:19;5.53;;;4.95;;
56960;SDS011;42857;49.768;22.716;2022-08-05T08:53:45;5.15;;;4.57;;
56960;SDS011;42857;49.768;22.716;2022-08-05T08:56:11;9.38;;;4.63;;
56960;SDS011;42857;49.768;22.716;2022-08-05T08:58:37;7.28;;;4.97;;
56960;SDS011;42857;49.768;22.716;2022-08-05T09:01:05;5.18;;;4.78;;
56960;SDS011;42857;49.768;22.716;2022-08-05T09:03:32;6.40;;;5.10;;
56960;SDS011;42857;49.768;22.716;2022-08-05T09:05:58;5.70;;;5.20;;
56960;SDS011;42857;49.768;22.716;2022-08-05T09:08:24;5.60;;;5.00;;
56960;SDS011;42857;49.768;22.716;2022-08-05T09:10:50;6.97;;;6.18;;
56960;SDS011;42857;49.768;22.716;2022-08-05T09:13:16;7.32;;;5.53;;
56960;SDS011;42857;49.768;22.716;2022-08-05T09:15:43;6.45;;;5.85;;
56960;SDS011;42857;49.768;22.716;2022-08-05T09:18:09;6.97;;;6.30;;
56960;SDS011;42857;49.768;22.716;2022-08-05T09:20:36;7.10;;;6.40;;
56960;SDS011;42857;49.768;22.716;2022-08-05T09:23:14;7.20;;;6.50;;
56960;SDS011;42857;49.768;22.716;2022-08-05T09:25:42;6.30;;;5.80;;
56960;SDS011;42857;49.768;22.716;2022-08-05T09:28:13;6.53;;;5.93;;
56960;SDS011;42857;49.768;22.716;2022-08-05T09:30:41;8.65;;;5.97;;
56960;SDS011;42857;49.768;22.716;2022-08-05T09:33:07;5.65;;;5.15;;
56960;SDS011;42857;49.768;22.716;2022-08-05T09:35:33;5.15;;;4.65;;
56960;SDS011;42857;49.768;22.716;2022-08-05T09:37:59;4.78;;;4.30;;
56960;SDS011;42857;49.768;22.716;2022-08-05T09:40:36;5.32;;;4.82;;
56960;SDS011;42857;49.768;22.716;2022-08-05T09:43:04;5.88;;;4.65;;
56960;SDS011;42857;49.768;22.716;2022-08-05T09:45:37;5.72;;;5.22;;
56960;SDS011;42857;49.768;22.716;2022-08-05T09:48:20;6.07;;;4.95;;
56960;SDS011;42857;49.768;22.716;2022-08-05T09:50:49;5.35;;;4.45;;
56960;SDS011;42857;49.768;22.716;2022-08-05T09:53:15;5.97;;;4.70;;
56960;SDS011;42857;49.768;22.716;2022-08-05T09:55:41;4.93;;;4.50;;
56960;SDS011;42857;49.768;22.716;2022-08-05T09:58:11;5.20;;;4.78;;
56960;SDS011;42857;49.768;22.716;2022-08-05T10:00:37;6.63;;;4.45;;
56960;SDS011;42857;49.768;22.716;2022-08-05T10:03:09;5.53;;;4.95;;
56960;SDS011;42857;49.768;22.716;2022-08-05T10:05:36;7.15;;;4.68;;
56960;SDS011;42857;49.768;22.716;2022-08-05T10:08:03;9.80;;;4.60;;
56960;SDS011;42857;49.768;22.716;2022-08-05T10:13:08;5.55;;;4.88;;
56960;SDS011;42857;49.768;22.716;2022-08-05T10:15:35;5.68;;;4.72;;
56960;SDS011;42857;49.768;22.716;2022-08-05T10:20:27;7.00;;;4.47;;
56960;SDS011;42857;49.768;22.716;2022-08-05T10:22:53;5.10;;;4.53;;
56960;SDS011;42857;49.768;22.716;2022-08-05T10:25:19;9.48;;;4.75;;
56960;SDS011;42857;49.768;22.716;2022-08-05T10:27:45;4.68;;;4.28;;
56960;SDS011;42857;49.768;22.716;2022-08-05T10:30:12;6.38;;;4.80;;
56960;SDS011;42857;49.768;22.716;2022-08-05T10:32:38;5.68;;;4.82;;
56960;SDS011;42857;49.768;22.716;2022-08-05T10:35:04;6.82;;;4.70;;
56960;SDS011;42857;49.768;22.716;2022-08-05T10:37:30;4.82;;;4.38;;
56960;SDS011;42857;49.768;22.716;2022-08-05T10:39:57;4.80;;;4.30;;
56960;SDS011;42857;49.768;22.716;2022-08-05T10:42:25;6.00;;;5.40;;
56960;SDS011;42857;49.768;22.716;2022-08-05T10:44:53;5.60;;;5.10;;
56960;SDS011;42857;49.768;22.716;2022-08-05T10:47:24;5.15;;;4.57;;
56960;SDS011;42857;49.768;22.716;2022-08-05T10:50:06;4.70;;;4.30;;
56960;SDS011;42857;49.768;22.716;2022-08-05T10:52:37;5.20;;;4.70;;
56960;SDS011;42857;49.768;22.716;2022-08-05T10:55:08;4.75;;;4.35;;
56960;SDS011;42857;49.768;22.716;2022-08-05T10:57:35;5.28;;;4.78;;
56960;SDS011;42857;49.768;22.716;2022-08-05T11:00:18;4.85;;;3.75;;
56960;SDS011;42857;49.768;22.716;2022-08-05T11:05:28;5.47;;;4.10;;
56960;SDS011;42857;49.768;22.716;2022-08-05T11:07:58;5.40;;;4.45;;
56960;SDS011;42857;49.768;22.716;2022-08-05T11:10:25;4.90;;;4.45;;
56960;SDS011;42857;49.768;22.716;2022-08-05T11:12:51;5.05;;;4.15;;
56960;SDS011;42857;49.768;22.716;2022-08-05T11:15:18;4.68;;;3.80;;
56960;SDS011;42857;49.768;22.716;2022-08-05T11:17:45;4.67;;;4.03;;
56960;SDS011;42857;49.768;22.716;2022-08-05T11:22:56;3.95;;;3.65;;
56960;SDS011;42857;49.768;22.716;2022-08-05T11:33:23;6.30;;;4.60;;
56960;SDS011;42857;49.768;22.716;2022-08-05T11:35:50;4.35;;;3.95;;
56960;SDS011;42857;49.768;22.716;2022-08-05T11:38:17;4.60;;;4.30;;
56960;SDS011;42857;49.768;22.716;2022-08-05T11:40:56;4.63;;;4.18;;
56960;SDS011;42857;49.768;22.716;2022-08-05T11:43:23;5.20;;;4.28;;
56960;SDS011;42857;49.768;22.716;2022-08-05T11:45:49;4.80;;;4.20;;
56960;SDS011;42857;49.768;22.716;2022-08-05T11:48:15;4.97;;;4.30;;
56960;SDS011;42857;49.768;22.716;2022-08-05T11:50:41;4.60;;;4.20;;
56960;SDS011;42857;49.768;22.716;2022-08-05T11:53:07;4.20;;;3.90;;
56960;SDS011;42857;49.768;22.716;2022-08-05T11:55:33;5.50;;;4.32;;
56960;SDS011;42857;49.768;22.716;2022-08-05T11:57:59;4.72;;;4.25;;
56960;SDS011;42857;49.768;22.716;2022-08-05T12:00:25;6.40;;;4.53;;
56960;SDS011;42857;49.768;22.716;2022-08-05T12:02:51;5.00;;;4.13;;
56960;SDS011;42857;49.768;22.716;2022-08-05T12:05:24;4.43;;;4.07;;
56960;SDS011;42857;49.768;22.716;2022-08-05T12:07:51;4.93;;;4.30;;
56960;SDS011;42857;49.768;22.716;2022-08-05T12:10:17;4.45;;;4.05;;
56960;SDS011;42857;49.768;22.716;2022-08-05T12:12:46;5.60;;;3.97;;
56960;SDS011;42857;49.768;22.716;2022-08-05T12:15:19;5.07;;;4.07;;
56960;SDS011;42857;49.768;22.716;2022-08-05T12:17:45;4.28;;;3.88;;
56960;SDS011;42857;49.768;22.716;2022-08-05T12:20:11;4.07;;;3.67;;
56960;SDS011;42857;49.768;22.716;2022-08-05T12:22:37;3.80;;;3.50;;
56960;SDS011;42857;49.768;22.716;2022-08-05T12:25:03;5.00;;;3.92;;
56960;SDS011;42857;49.768;22.716;2022-08-05T12:27:30;4.00;;;3.55;;
56960;SDS011;42857;49.768;22.716;2022-08-05T12:30:09;3.90;;;3.65;;
56960;SDS011;42857;49.768;22.716;2022-08-05T12:32:45;3.92;;;3.50;;
56960;SDS011;42857;49.768;22.716;2022-08-05T12:35:11;4.90;;;3.90;;
56960;SDS011;42857;49.768;22.716;2022-08-05T12:37:41;3.47;;;3.17;;
56960;SDS011;42857;49.768;22.716;2022-08-05T12:40:08;4.03;;;3.70;;
56960;SDS011;42857;49.768;22.716;2022-08-05T12:42:34;6.18;;;3.40;;
56960;SDS011;42857;49.768;22.716;2022-08-05T12:45:18;3.70;;;3.40;;
56960;SDS011;42857;49.768;22.716;2022-08-05T12:47:45;5.10;;;3.22;;
56960;SDS011;42857;49.768;22.716;2022-08-05T12:50:15;5.33;;;3.40;;
56960;SDS011;42857;49.768;22.716;2022-08-05T12:52:41;4.07;;;3.67;;
56960;SDS011;42857;49.768;22.716;2022-08-05T12:57:42;3.33;;;3.03;;
56960;SDS011;42857;49.768;22.716;2022-08-05T13:00:18;3.17;;;2.88;;
56960;SDS011;42857;49.768;22.716;2022-08-05T13:02:45;4.35;;;3.35;;
56960;SDS011;42857;49.768;22.716;2022-08-05T13:05:11;5.80;;;3.22;;
56960;SDS011;42857;49.768;22.716;2022-08-05T13:07:38;3.90;;;3.50;;
56960;SDS011;42857;49.768;22.716;2022-08-05T13:10:09;3.15;;;2.90;;
56960;SDS011;42857;49.768;22.716;2022-08-05T13:12:38;2.92;;;2.72;;
56960;SDS011;42857;49.768;22.716;2022-08-05T13:15:04;3.00;;;2.80;;
56960;SDS011;42857;49.768;22.716;2022-08-05T13:17:31;9.03;;;3.17;;
56960;SDS011;42857;49.768;22.716;2022-08-05T13:22:27;2.90;;;2.70;;
56960;SDS011;42857;49.768;22.716;2022-08-05T13:24:53;3.07;;;2.87;;
56960;SDS011;42857;49.768;22.716;2022-08-05T13:27:26;3.30;;;2.92;;
56960;SDS011;42857;49.768;22.716;2022-08-05T13:29:52;3.25;;;2.92;;
56960;SDS011;42857;49.768;22.716;2022-08-05T13:32:19;4.38;;;3.22;;
56960;SDS011;42857;49.768;22.716;2022-08-05T13:34:45;5.50;;;2.95;;
56960;SDS011;42857;49.768;22.716;2022-08-05T13:37:11;3.53;;;2.83;;
56960;SDS011;42857;49.768;22.716;2022-08-05T13:39:37;3.38;;;3.08;;
56960;SDS011;42857;49.768;22.716;2022-08-05T13:42:03;3.58;;;3.28;;
56960;SDS011;42857;49.768;22.716;2022-08-05T13:44:29;3.40;;;3.10;;
56960;SDS011;42857;49.768;22.716;2022-08-05T13:46:55;3.92;;;3.22;;
56960;SDS011;42857;49.768;22.716;2022-08-05T13:49:21;3.58;;;2.97;;
56960;SDS011;42857;49.768;22.716;2022-08-05T13:51:47;3.45;;;3.15;;
56960;SDS011;42857;49.768;22.716;2022-08-05T13:54:14;3.80;;;3.50;;
56960;SDS011;42857;49.768;22.716;2022-08-05T13:59:06;4.13;;;3.73;;
56960;SDS011;42857;49.768;22.716;2022-08-05T14:01:33;4.18;;;3.67;;
56960;SDS011;42857;49.768;22.716;2022-08-05T14:03:59;4.22;;;3.38;;
56960;SDS011;42857;49.768;22.716;2022-08-05T14:06:43;3.33;;;3.10;;
56960;SDS011;42857;49.768;22.716;2022-08-05T14:09:09;4.05;;;3.75;;
56960;SDS011;42857;49.768;22.716;2022-08-05T14:11:35;4.72;;;3.95;;
56960;SDS011;42857;49.768;22.716;2022-08-05T14:14:05;6.38;;;3.72;;
56960;SDS011;42857;49.768;22.716;2022-08-05T14:16:31;3.95;;;3.58;;
56960;SDS011;42857;49.768;22.716;2022-08-05T14:18:57;4.90;;;3.55;;
56960;SDS011;42857;49.768;22.716;2022-08-05T14:21:23;5.18;;;3.83;;
56960;SDS011;42857;49.768;22.716;2022-08-05T14:23:48;4.72;;;3.40;;
56960;SDS011;42857;49.768;22.716;2022-08-05T14:26:14;4.40;;;4.00;;
56960;SDS011;42857;49.768;22.716;2022-08-05T14:28:40;3.80;;;3.47;;
56960;SDS011;42857;49.768;22.716;2022-08-05T14:31:07;5.22;;;3.70;;
56960;SDS011;42857;49.768;22.716;2022-08-05T14:33:33;3.80;;;3.50;;
56960;SDS011;42857;49.768;22.716;2022-08-05T14:35:59;4.68;;;4.18;;
56960;SDS011;42857;49.768;22.716;2022-08-05T14:38:25;5.03;;;3.80;;
56960;SDS011;42857;49.768;22.716;2022-08-05T14:40:51;4.10;;;3.70;;
56960;SDS011;42857;49.768;22.716;2022-08-05T14:43:18;4.75;;;4.32;;
56960;SDS011;42857;49.768;22.716;2022-08-05T14:45:44;5.18;;;4.20;;
56960;SDS011;42857;49.768;22.716;2022-08-05T14:48:09;4.82;;;4.45;;
56960;SDS011;42857;49.768;22.716;2022-08-05T14:50:35;6.20;;;4.68;;
56960;SDS011;42857;49.768;22.716;2022-08-05T14:53:01;4.45;;;4.15;;
56960;SDS011;42857;49.768;22.716;2022-08-05T14:55:27;4.70;;;4.30;;
56960;SDS011;42857;49.768;22.716;2022-08-05T14:57:53;5.25;;;4.32;;
56960;SDS011;42857;49.768;22.716;2022-08-05T15:00:19;5.72;;;4.65;;
56960;SDS011;42857;49.768;22.716;2022-08-05T15:02:46;4.78;;;4.35;;
56960;SDS011;42857;49.768;22.716;2022-08-05T15:05:12;5.30;;;4.22;;
56960;SDS011;42857;49.768;22.716;2022-08-05T15:07:38;5.75;;;4.35;;
56960;SDS011;42857;49.768;22.716;2022-08-05T15:10:05;5.57;;;4.22;;
56960;SDS011;42857;49.768;22.716;2022-08-05T15:12:31;4.43;;;4.13;;